createdAt,value
2023-03-25T00:19:21.859Z,2.17
2023-03-25T00:24:25.526Z,4.10
2023-03-25T00:29:29.235Z,2.05
2023-03-25T00:34:34.538Z,2.03
2023-03-25T00:39:38.434Z,1.70
2023-03-25T00:44:42.217Z,2.05
2023-03-25T00:49:47.488Z,2.10
2023-03-25T00:54:51.139Z,2.47
2023-03-25T00:59:54.780Z,2.20
2023-03-25T01:05:00.071Z,2.13
2023-03-25T01:10:04.154Z,2.10
2023-03-25T01:15:10.573Z,1.67
2023-03-25T01:20:15.909Z,2.17
2023-03-25T01:25:20.492Z,1.53
2023-03-25T01:30:24.120Z,2.60
2023-03-25T01:35:29.399Z,2.10
2023-03-25T01:40:33.116Z,2.00
2023-03-25T01:45:36.802Z,2.40
2023-03-25T01:50:45.778Z,2.47
2023-03-25T01:55:50.505Z,2.03
2023-03-25T02:00:55.655Z,2.45
2023-03-25T02:06:03.296Z,2.15
2023-03-25T02:11:07.942Z,2.55
2023-03-25T02:16:27.574Z,2.30
2023-03-25T02:22:10.026Z,2.75
2023-03-25T02:27:25.672Z,2.75
2023-03-25T02:32:47.815Z,2.50
2023-03-25T02:38:26.421Z,2.58
2023-03-25T02:43:33.394Z,3.50
2023-03-25T02:48:41.795Z,3.45
2023-03-25T02:53:49.922Z,3.22
2023-03-25T02:58:56.300Z,2.95
2023-03-25T03:03:59.921Z,2.97
2023-03-25T03:09:18.279Z,3.60
2023-03-25T03:14:44.376Z,3.85
2023-03-25T03:19:51.643Z,3.57
2023-03-25T03:25:02.781Z,3.70
2023-03-25T03:30:11.996Z,3.33
2023-03-25T03:35:20.355Z,3.40
2023-03-25T03:40:28.147Z,4.18
2023-03-25T03:45:37.012Z,3.72
2023-03-25T03:50:44.451Z,3.63
2023-03-25T03:55:53.504Z,4.07
2023-03-25T04:01:03.937Z,3.83
2023-03-25T04:06:14.616Z,3.30
2023-03-25T04:11:23.683Z,3.83
2023-03-25T04:16:27.424Z,3.85
2023-03-25T04:21:31.126Z,3.50
2023-03-25T04:26:36.596Z,3.45
2023-03-25T04:31:40.394Z,3.87
2023-03-25T04:36:44.088Z,4.00
2023-03-25T04:41:49.838Z,4.05
2023-03-25T04:46:53.917Z,3.47
2023-03-25T04:51:57.533Z,3.53
2023-03-25T04:57:02.846Z,3.10
2023-03-25T05:02:07.482Z,3.70
2023-03-25T05:07:11.098Z,3.20
2023-03-25T05:12:16.426Z,3.05
2023-03-25T05:17:20.034Z,3.30
2023-03-25T05:22:23.670Z,3.33
2023-03-25T05:27:29.333Z,3.25
2023-03-25T05:32:33.060Z,3.60
2023-03-25T05:37:36.799Z,3.28
2023-03-25T05:42:42.117Z,3.13
2023-03-25T05:47:45.844Z,3.25
2023-03-25T05:52:49.835Z,3.30
2023-03-25T05:57:55.116Z,3.10
2023-03-25T06:02:58.887Z,3.53
2023-03-25T06:08:02.595Z,2.80
2023-03-25T06:13:07.888Z,3.28
2023-03-25T06:18:11.585Z,3.28
2023-03-25T06:23:15.255Z,3.35
2023-03-25T06:28:20.903Z,3.03
2023-03-25T06:33:42.788Z,3.10
2023-03-25T06:38:48.263Z,3.17
2023-03-25T06:43:54.541Z,3.22
2023-03-25T06:54:01.060Z,3.30
2023-03-25T06:59:06.642Z,3.00
2023-03-25T07:04:10.288Z,2.90
2023-03-25T07:09:13.972Z,2.70
2023-03-25T07:14:19.277Z,3.58
2023-03-25T07:19:23.036Z,2.65
2023-03-25T07:24:26.696Z,3.45
2023-03-25T07:29:31.982Z,2.78
2023-03-25T07:34:35.716Z,2.70
2023-03-25T07:39:39.321Z,2.53
2023-03-25T07:44:45.593Z,2.30
2023-03-25T07:54:52.105Z,2.85
2023-03-25T07:59:57.409Z,2.38
2023-03-25T08:05:03.265Z,2.53
2023-03-25T08:10:09.371Z,2.33
2023-03-25T08:15:15.060Z,2.65
2023-03-25T08:20:18.813Z,2.23
2023-03-25T08:25:22.534Z,2.83
2023-03-25T08:30:27.897Z,2.90
2023-03-25T08:35:31.634Z,2.40
2023-03-25T08:40:35.876Z,2.40
2023-03-25T08:45:41.191Z,2.50
2023-03-25T08:50:45.015Z,2.45
2023-03-25T08:55:51.289Z,2.80
2023-03-25T09:00:58.328Z,2.65
2023-03-25T09:06:05.629Z,2.58
2023-03-25T09:11:09.265Z,3.00
2023-03-25T09:16:14.546Z,2.40
2023-03-25T09:21:18.188Z,2.90
2023-03-25T09:26:21.815Z,2.35
2023-03-25T09:31:27.400Z,2.50
2023-03-25T09:36:31.086Z,2.60
2023-03-25T09:42:02.863Z,2.40
2023-03-25T09:47:14.940Z,2.10
2023-03-25T09:52:24.798Z,2.50
2023-03-25T09:57:33.308Z,2.40
2023-03-25T10:02:43.612Z,2.58
2023-03-25T10:07:59.670Z,2.20
2023-03-25T10:13:13.871Z,2.03
2023-03-25T10:18:38.379Z,1.70
2023-03-25T10:23:47.254Z,2.03
2023-03-25T10:28:53.872Z,2.05
2023-03-25T10:34:03.254Z,2.25
2023-03-25T10:39:16.172Z,1.90
2023-03-25T10:44:21.855Z,2.10
2023-03-25T10:49:30.616Z,2.20
2023-03-25T10:54:40.162Z,2.22
2023-03-25T10:59:50.221Z,2.08
2023-03-25T11:04:59.291Z,2.10
2023-03-25T11:10:16.919Z,1.85
2023-03-25T11:15:23.221Z,2.05
2023-03-25T11:25:37.879Z,1.77
2023-03-25T11:31:12.267Z,1.35
2023-03-25T11:36:27.958Z,2.28
2023-03-25T11:41:34.968Z,2.10
2023-03-25T11:46:43.860Z,2.00
2023-03-25T11:51:50.707Z,1.63
2023-03-25T11:56:56.711Z,1.80
2023-03-25T12:02:09.329Z,1.77
2023-03-25T12:07:19.831Z,1.70
2023-03-25T12:12:43.147Z,1.67
2023-03-25T12:17:57.204Z,1.80
2023-03-25T12:23:15.376Z,1.83
2023-03-25T12:29:09.266Z,1.30
2023-03-25T12:34:27.623Z,1.50
2023-03-25T12:39:48.595Z,1.65
2023-03-25T12:45:07.820Z,1.63
2023-03-25T12:50:25.635Z,1.60
2023-03-25T12:55:45.381Z,1.50
2023-03-25T13:00:56.794Z,1.60
2023-03-25T13:06:04.683Z,1.50
2023-03-25T13:11:16.010Z,1.70
2023-03-25T13:16:22.410Z,1.58
2023-03-25T13:26:33.656Z,1.60
2023-03-25T13:31:39.832Z,1.57
2023-03-25T13:36:46.010Z,1.45
2023-03-25T13:41:56.060Z,1.42
2023-03-25T13:47:06.235Z,1.65
2023-03-25T13:52:10.298Z,1.40
2023-03-25T13:57:57.818Z,1.38
2023-03-25T14:03:32.273Z,1.25
2023-03-25T14:09:25.001Z,1.50
2023-03-25T14:14:29.887Z,1.30
2023-03-25T14:19:38.591Z,1.40
2023-03-25T14:24:42.443Z,1.70
2023-03-25T14:29:48.292Z,1.15
2023-03-25T14:34:53.694Z,1.30
2023-03-25T14:40:00.004Z,1.30
2023-03-25T14:45:38.751Z,1.20
2023-03-25T14:50:45.565Z,1.40
2023-03-25T14:55:49.343Z,0.77
2023-03-25T15:00:56.684Z,1.30
2023-03-25T15:06:02.162Z,1.48
2023-03-25T15:11:09.225Z,0.80
2023-03-25T15:16:20.158Z,0.88
2023-03-25T15:21:26.650Z,1.00
2023-03-25T15:31:56.686Z,0.77
2023-03-25T15:37:39.344Z,1.10
2023-03-25T15:43:15.419Z,0.80
2023-03-25T15:48:55.205Z,0.70
2023-03-25T15:54:20.541Z,0.90
2023-03-25T15:59:33.289Z,0.90
2023-03-25T16:04:41.672Z,0.90
2023-03-25T16:09:49.187Z,1.30
2023-03-25T16:14:53.418Z,4.63
2023-03-25T16:19:58.156Z,2.38
2023-03-25T16:25:05.093Z,1.45
2023-03-25T16:30:21.100Z,1.80
2023-03-25T16:35:28.814Z,1.20
2023-03-25T16:40:37.982Z,1.15
2023-03-25T16:45:45.040Z,1.42
2023-03-25T16:50:49.687Z,1.50
2023-03-25T16:55:58.630Z,1.10
2023-03-25T17:01:03.967Z,1.35
2023-03-25T17:06:18.569Z,1.57
2023-03-25T17:11:26.915Z,0.88
2023-03-25T17:16:33.157Z,1.20
2023-03-25T17:21:37.334Z,1.00
2023-03-25T17:26:56.190Z,1.13
2023-03-25T17:32:01.123Z,0.98
2023-03-25T17:37:04.775Z,1.00
2023-03-25T17:42:20.998Z,1.17
2023-03-25T17:47:24.690Z,1.15
2023-03-25T17:52:30.732Z,1.45
2023-03-25T17:57:37.762Z,1.10
2023-03-25T18:07:44.376Z,1.23
2023-03-25T18:12:49.673Z,1.10
2023-03-25T18:17:53.433Z,1.25
2023-03-25T18:22:57.388Z,1.30
2023-03-25T18:28:02.663Z,1.17
2023-03-25T18:33:06.349Z,1.33
2023-03-25T18:38:17.701Z,1.10
2023-03-25T18:43:23.337Z,1.42
2023-03-25T18:48:26.995Z,1.50
2023-03-25T18:53:31.132Z,1.40
2023-03-25T18:58:37.429Z,1.42
2023-03-25T19:03:41.163Z,1.27
2023-03-25T19:08:45.677Z,1.40
2023-03-25T19:13:51.426Z,1.23
2023-03-25T19:23:57.931Z,1.80
2023-03-25T19:29:03.213Z,1.80
2023-03-25T19:34:06.842Z,1.58
2023-03-25T19:39:10.511Z,1.75
2023-03-25T19:44:15.838Z,1.65
2023-03-25T19:49:32.624Z,1.95
2023-03-25T19:54:42.805Z,1.60
2023-03-25T19:59:48.150Z,1.65
2023-03-25T20:04:53.011Z,2.20
2023-03-25T20:09:57.360Z,1.87
2023-03-25T20:15:04.895Z,2.20
2023-03-25T20:20:10.534Z,2.00
2023-03-25T20:30:20.745Z,2.40
2023-03-25T20:35:24.454Z,2.60
2023-03-25T20:40:41.600Z,3.00
2023-03-25T20:45:49.186Z,2.92
2023-03-25T20:51:00.376Z,2.83
2023-03-25T20:56:05.100Z,2.70
2023-03-25T21:01:10.771Z,3.27
2023-03-25T21:11:24.995Z,2.70
2023-03-25T21:16:30.441Z,2.38
2023-03-25T21:21:34.849Z,2.67
2023-03-25T21:26:38.619Z,2.45
2023-03-25T21:31:44.021Z,2.40
2023-03-25T21:36:47.776Z,2.40
2023-03-25T21:41:51.888Z,2.20
2023-03-25T21:46:57.206Z,2.60
2023-03-25T21:52:00.996Z,2.42
2023-03-25T21:57:04.789Z,2.05
2023-03-25T22:02:11.277Z,2.50
2023-03-25T22:07:14.926Z,3.10
2023-03-25T22:12:18.601Z,2.60
2023-03-25T22:17:24.019Z,2.30
2023-03-25T22:22:27.723Z,2.58
2023-03-25T22:27:31.412Z,2.90
2023-03-25T22:32:37.490Z,2.50
2023-03-25T22:37:41.445Z,2.67
2023-03-25T22:42:45.100Z,2.45
2023-03-25T22:47:50.407Z,2.88
2023-03-25T22:52:54.099Z,2.60
2023-03-25T22:57:57.732Z,2.38
2023-03-25T23:03:03.114Z,2.65
2023-03-25T23:08:07.625Z,2.50
2023-03-25T23:13:11.327Z,2.70
2023-03-25T23:18:16.654Z,2.75
2023-03-25T23:23:20.472Z,4.85
2023-03-25T23:28:24.095Z,2.67
2023-03-25T23:33:29.441Z,3.40
2023-03-25T23:38:33.323Z,2.80
2023-03-25T23:43:37.781Z,2.65
2023-03-25T23:48:43.080Z,3.22
2023-03-25T23:53:47.866Z,3.00
2023-03-25T23:58:51.602Z,2.88
